createdAt,value
2019-01-12T00:02:18.240Z,27.57
2019-01-12T00:04:48.059Z,30.50
2019-01-12T00:07:17.879Z,32.67
2019-01-12T00:09:47.613Z,28.20
2019-01-12T00:12:17.315Z,29.53
2019-01-12T00:14:47.139Z,29.63
2019-01-12T00:17:16.810Z,27.53
2019-01-12T00:19:46.515Z,28.67
2019-01-12T00:22:16.358Z,27.17
2019-01-12T00:24:46.145Z,27.30
2019-01-12T00:27:16.595Z,28.00
2019-01-12T00:29:46.454Z,28.63
2019-01-12T00:32:16.271Z,35.27
2019-01-12T00:34:46.154Z,36.97
2019-01-12T00:37:16.004Z,32.77
2019-01-12T00:39:49.060Z,31.47
2019-01-12T00:42:18.864Z,28.67
2019-01-12T00:44:48.685Z,29.03
2019-01-12T00:47:18.390Z,27.63
2019-01-12T00:49:48.290Z,28.30
2019-01-12T00:52:18.025Z,27.13
2019-01-12T00:54:47.956Z,24.37
2019-01-12T00:57:17.758Z,29.03
2019-01-12T00:59:47.567Z,30.20
2019-01-12T01:02:18.220Z,28.33
2019-01-12T01:04:47.999Z,28.37
2019-01-12T01:07:17.774Z,29.63
2019-01-12T01:09:47.396Z,24.93
2019-01-12T01:12:17.327Z,26.37
2019-01-12T01:14:47.165Z,28.33
2019-01-12T01:17:16.957Z,30.47
2019-01-12T01:19:46.866Z,27.83
2019-01-12T01:22:16.595Z,26.30
2019-01-12T01:24:46.388Z,26.50
2019-01-12T01:27:16.216Z,28.30
2019-01-12T01:29:46.324Z,26.40
2019-01-12T01:32:16.040Z,24.90
2019-01-12T01:34:45.886Z,24.27
2019-01-12T01:37:15.732Z,24.80
2019-01-12T01:39:45.507Z,25.53
2019-01-12T01:42:15.371Z,24.33
2019-01-12T01:44:45.039Z,26.37
2019-01-12T01:47:14.828Z,24.97
2019-01-12T01:49:44.615Z,28.87
2019-01-12T01:52:14.380Z,26.67
2019-01-12T01:54:44.185Z,26.27
2019-01-12T01:57:13.873Z,26.47
2019-01-12T01:59:43.560Z,23.50
2019-01-12T02:02:13.361Z,23.83
2019-01-12T02:04:43.086Z,25.03
2019-01-12T02:07:12.897Z,27.73
2019-01-12T02:09:42.823Z,25.10
2019-01-12T02:12:12.584Z,21.53
2019-01-12T02:14:42.252Z,26.43
2019-01-12T02:17:11.887Z,20.00
2019-01-12T02:19:41.673Z,22.50
2019-01-12T02:22:11.567Z,20.87
2019-01-12T02:24:41.337Z,20.17
2019-01-12T02:27:11.086Z,18.30
2019-01-12T02:29:40.889Z,19.63
2019-01-12T02:32:10.712Z,19.10
2019-01-12T02:34:40.732Z,21.63
2019-01-12T02:37:10.490Z,23.23
2019-01-12T02:39:40.276Z,18.30
2019-01-12T02:42:10.081Z,26.20
2019-01-12T02:44:39.950Z,18.23
2019-01-12T02:47:09.705Z,19.43
2019-01-12T02:49:39.441Z,20.97
2019-01-12T02:52:09.225Z,22.40
2019-01-12T02:54:39.021Z,25.67
2019-01-12T02:57:08.990Z,25.90
2019-01-12T02:59:38.660Z,25.83
2019-01-12T03:02:08.356Z,29.73
2019-01-12T03:04:38.195Z,23.30
2019-01-12T03:07:07.976Z,18.60
2019-01-12T03:09:37.683Z,21.53
2019-01-12T03:12:07.594Z,20.40
2019-01-12T03:14:37.275Z,24.90
2019-01-12T03:17:07.114Z,24.47
2019-01-12T03:19:37.053Z,19.53
2019-01-12T03:22:06.968Z,22.60
2019-01-12T03:24:36.777Z,22.70
2019-01-12T03:27:06.571Z,25.87
2019-01-12T03:29:36.394Z,20.17
2019-01-12T03:32:06.219Z,23.60
2019-01-12T03:34:36.205Z,21.20
2019-01-12T03:37:06.061Z,19.90
2019-01-12T03:39:35.766Z,23.13
2019-01-12T03:42:05.670Z,20.23
2019-01-12T03:44:35.550Z,23.77
2019-01-12T03:47:05.535Z,21.87
2019-01-12T03:49:35.327Z,24.67
2019-01-12T03:52:05.196Z,20.17
2019-01-12T03:54:34.945Z,24.07
2019-01-12T03:57:04.715Z,20.97
2019-01-12T03:59:34.436Z,21.20
2019-01-12T04:02:04.133Z,26.73
2019-01-12T04:04:33.913Z,22.17
2019-01-12T04:07:03.739Z,23.67
2019-01-12T04:09:33.521Z,22.67
2019-01-12T04:12:03.333Z,26.13
2019-01-12T04:14:33.190Z,24.73
2019-01-12T04:17:03.321Z,24.10
2019-01-12T04:19:33.020Z,22.03
2019-01-12T04:22:02.835Z,22.40
2019-01-12T04:24:32.604Z,23.20
2019-01-12T04:27:02.494Z,19.83
2019-01-12T04:29:33.171Z,21.50
2019-01-12T04:32:02.959Z,24.10
2019-01-12T04:34:32.819Z,22.03
2019-01-12T04:37:02.599Z,26.77
2019-01-12T04:39:32.436Z,28.70
2019-01-12T04:42:02.185Z,22.40
2019-01-12T04:44:32.354Z,23.03
2019-01-12T04:47:02.136Z,21.00
2019-01-12T04:49:31.886Z,19.33
2019-01-12T04:52:01.617Z,24.03
2019-01-12T04:54:31.421Z,21.00
2019-01-12T04:57:01.194Z,19.93
2019-01-12T04:59:30.932Z,25.20
2019-01-12T05:02:00.709Z,25.33
2019-01-12T05:04:30.434Z,23.63
2019-01-12T05:07:00.227Z,23.47
2019-01-12T05:09:29.983Z,22.00
2019-01-12T05:11:59.676Z,21.07
2019-01-12T05:14:29.454Z,24.27
2019-01-12T05:16:59.173Z,25.47
2019-01-12T05:19:28.898Z,23.37
2019-01-12T05:21:58.834Z,33.63
2019-01-12T05:24:28.558Z,25.20
2019-01-12T05:26:58.314Z,26.17
2019-01-12T05:29:28.079Z,26.73
2019-01-12T05:31:57.885Z,25.43
2019-01-12T05:34:27.667Z,27.23
2019-01-12T05:36:57.374Z,24.57
2019-01-12T05:39:27.295Z,30.23
2019-01-12T05:41:57.058Z,28.50
2019-01-12T05:44:27.424Z,27.27
2019-01-12T05:46:57.307Z,23.93
2019-01-12T05:49:27.117Z,24.30
2019-01-12T05:51:56.815Z,26.67
2019-01-12T05:54:26.555Z,23.37
2019-01-12T05:56:56.377Z,22.97
2019-01-12T05:59:26.085Z,27.23
2019-01-12T06:01:55.905Z,28.97
2019-01-12T06:04:25.643Z,26.90
2019-01-12T06:06:55.469Z,25.80
2019-01-12T06:09:25.365Z,25.83
2019-01-12T06:11:55.199Z,24.07
2019-01-12T06:14:24.890Z,25.43
2019-01-12T06:16:54.670Z,44.47
2019-01-12T06:19:24.510Z,49.23
2019-01-12T06:21:54.279Z,43.80
2019-01-12T06:24:24.115Z,34.23
2019-01-12T06:26:54.091Z,30.30
2019-01-12T06:29:23.717Z,25.20
2019-01-12T06:31:53.412Z,27.23
2019-01-12T06:34:23.250Z,23.17
2019-01-12T06:36:52.961Z,25.63
2019-01-12T06:39:22.864Z,21.97
2019-01-12T06:41:52.616Z,18.70
2019-01-12T06:44:22.465Z,23.90
2019-01-12T06:46:52.279Z,21.30
2019-01-12T06:49:21.853Z,18.83
2019-01-12T06:51:51.546Z,20.00
2019-01-12T06:54:22.444Z,19.80
2019-01-12T06:56:52.535Z,19.57
2019-01-12T06:59:22.330Z,18.27
2019-01-12T07:01:52.191Z,16.27
2019-01-12T07:04:21.929Z,19.93
2019-01-12T07:06:51.704Z,21.43
2019-01-12T07:09:21.643Z,21.37
2019-01-12T07:11:51.348Z,19.63
2019-01-12T07:14:21.115Z,22.17
2019-01-12T07:16:50.735Z,22.57
2019-01-12T07:19:20.601Z,19.80
2019-01-12T07:21:50.222Z,20.87
2019-01-12T07:24:19.778Z,17.77
2019-01-12T07:26:49.575Z,23.13
2019-01-12T07:29:19.472Z,19.67
2019-01-12T07:31:49.136Z,19.77
2019-01-12T07:34:18.861Z,19.37
2019-01-12T07:36:48.755Z,19.87
2019-01-12T07:39:18.565Z,198.37
2019-01-12T07:41:48.301Z,47.30
2019-01-12T07:44:18.048Z,23.30
2019-01-12T07:46:47.771Z,21.67
2019-01-12T07:49:17.513Z,21.80
2019-01-12T07:51:47.503Z,22.30
2019-01-12T07:54:17.244Z,17.53
2019-01-12T07:56:46.936Z,19.97
2019-01-12T07:59:16.764Z,23.53
2019-01-12T08:01:46.558Z,20.60
2019-01-12T08:04:16.332Z,18.17
2019-01-12T08:06:46.113Z,18.63
2019-01-12T08:09:15.869Z,18.87
2019-01-12T08:11:45.747Z,19.90
2019-01-12T08:14:15.467Z,19.93
2019-01-12T08:16:45.269Z,20.87
2019-01-12T08:19:15.062Z,17.17
2019-01-12T08:21:44.804Z,20.67
2019-01-12T08:24:14.555Z,20.50
2019-01-12T08:26:45.028Z,19.83
2019-01-12T08:29:14.770Z,17.77
2019-01-12T08:31:44.530Z,34.93
2019-01-12T08:34:14.291Z,17.07
2019-01-12T08:36:44.081Z,16.80
2019-01-12T08:39:13.863Z,18.53
2019-01-12T08:41:43.857Z,21.37
2019-01-12T08:44:13.606Z,16.97
2019-01-12T08:46:43.456Z,17.57
2019-01-12T08:49:13.216Z,17.40
2019-01-12T08:51:43.183Z,17.70
2019-01-12T08:54:14.578Z,16.83
2019-01-12T08:56:44.308Z,17.80
2019-01-12T08:59:14.570Z,16.07
2019-01-12T09:01:44.211Z,15.47
2019-01-12T09:04:13.964Z,11.57
2019-01-12T09:06:43.723Z,20.23
2019-01-12T09:09:13.480Z,22.90
2019-01-12T09:11:43.236Z,22.43
2019-01-12T09:14:13.020Z,14.90
2019-01-12T09:16:44.642Z,17.83
2019-01-12T09:19:15.848Z,26.00
2019-01-12T09:21:45.902Z,22.70
2019-01-12T09:24:16.095Z,27.43
2019-01-12T09:26:46.018Z,22.70
2019-01-12T09:29:18.122Z,25.83
2019-01-12T09:31:47.906Z,17.43
2019-01-12T09:34:17.685Z,19.47
2019-01-12T09:36:47.538Z,23.23
2019-01-12T09:39:17.171Z,17.50
2019-01-12T09:41:46.944Z,23.93
2019-01-12T09:44:16.790Z,23.20
2019-01-12T09:46:46.516Z,16.50
2019-01-12T09:49:16.362Z,24.80
2019-01-12T09:51:46.128Z,24.50
2019-01-12T09:54:15.790Z,29.17
2019-01-12T09:56:51.550Z,22.70
2019-01-12T09:59:18.232Z,21.20
2019-01-12T10:01:48.022Z,23.70
2019-01-12T10:04:17.800Z,22.63
2019-01-12T10:06:47.610Z,20.40
2019-01-12T10:09:17.387Z,16.77
2019-01-12T10:11:47.120Z,17.30
2019-01-12T10:14:16.921Z,20.47
2019-01-12T10:16:46.643Z,21.13
2019-01-12T10:19:17.399Z,18.07
2019-01-12T10:21:47.142Z,14.23
2019-01-12T10:24:18.290Z,21.27
2019-01-12T10:26:49.727Z,23.73
2019-01-12T10:29:20.290Z,15.00
2019-01-12T10:31:50.393Z,13.73
2019-01-12T10:34:20.237Z,14.97
2019-01-12T10:36:50.172Z,13.10
2019-01-12T10:39:19.762Z,14.23
2019-01-12T10:41:49.688Z,12.60
2019-01-12T10:44:20.019Z,17.13
2019-01-12T10:46:49.791Z,16.43
2019-01-12T10:49:19.574Z,10.37
2019-01-12T10:51:49.387Z,11.17
2019-01-12T10:54:19.450Z,10.93
2019-01-12T10:56:49.915Z,13.23
2019-01-12T10:59:21.463Z,13.93
2019-01-12T11:01:51.137Z,17.43
2019-01-12T11:04:21.721Z,14.17
2019-01-12T11:06:51.472Z,11.70
2019-01-12T11:09:21.259Z,9.13
2019-01-12T11:11:51.118Z,10.20
2019-01-12T11:14:20.950Z,11.07
2019-01-12T11:16:50.668Z,8.80
2019-01-12T11:19:20.497Z,13.40
2019-01-12T11:21:50.291Z,8.53
2019-01-12T11:24:20.118Z,7.87
2019-01-12T11:26:49.815Z,10.60
2019-01-12T11:29:19.620Z,11.03
2019-01-12T11:31:49.410Z,10.70
2019-01-12T11:34:19.206Z,10.03
2019-01-12T11:36:48.979Z,10.10
2019-01-12T11:39:18.757Z,23.73
2019-01-12T11:41:48.587Z,11.90
2019-01-12T11:44:18.323Z,9.13
2019-01-12T11:46:48.146Z,8.80
2019-01-12T11:49:18.552Z,12.53
2019-01-12T11:51:48.324Z,7.13
2019-01-12T11:54:18.115Z,11.23
2019-01-12T11:56:47.896Z,8.77
2019-01-12T11:59:17.747Z,8.40
2019-01-12T12:01:47.372Z,9.50
2019-01-12T12:04:17.045Z,8.87
2019-01-12T12:06:46.885Z,8.90
2019-01-12T12:09:18.522Z,10.83
2019-01-12T12:11:48.318Z,13.50
2019-01-12T12:14:18.141Z,9.43
2019-01-12T12:16:47.921Z,10.70
2019-01-12T12:19:17.691Z,9.33
2019-01-12T12:21:47.350Z,10.97
2019-01-12T12:24:17.187Z,10.60
2019-01-12T12:26:46.892Z,8.40
2019-01-12T12:29:16.711Z,21.30
2019-01-12T12:31:46.386Z,11.83
2019-01-12T12:34:16.201Z,7.83
2019-01-12T12:36:45.985Z,6.90
2019-01-12T12:39:15.767Z,10.27
2019-01-12T12:41:45.652Z,8.70
2019-01-12T12:44:15.496Z,9.77
2019-01-12T12:46:46.119Z,46.93
2019-01-12T12:49:15.893Z,12.37
2019-01-12T12:51:45.781Z,10.03
2019-01-12T12:54:15.657Z,9.00
2019-01-12T12:56:45.334Z,11.50
2019-01-12T12:59:15.263Z,12.27
2019-01-12T13:01:45.234Z,11.23
2019-01-12T13:04:14.990Z,10.80
2019-01-12T13:06:44.810Z,11.10
2019-01-12T13:09:14.574Z,10.87
2019-01-12T13:11:44.350Z,10.87
2019-01-12T13:14:14.184Z,10.90
2019-01-12T13:16:43.966Z,12.47
2019-01-12T13:19:13.824Z,9.47
2019-01-12T13:21:43.841Z,8.60
2019-01-12T13:24:13.671Z,20.80
2019-01-12T13:26:43.473Z,10.17
2019-01-12T13:29:13.915Z,9.50
2019-01-12T13:31:43.929Z,8.47
2019-01-12T13:34:13.713Z,9.83
2019-01-12T13:36:43.552Z,10.73
2019-01-12T13:39:13.369Z,10.27
2019-01-12T13:41:43.205Z,10.13
2019-01-12T13:44:12.975Z,8.00
2019-01-12T13:46:42.770Z,10.93
2019-01-12T13:49:12.613Z,10.43
2019-01-12T13:51:42.574Z,13.80
2019-01-12T13:54:12.500Z,11.37
2019-01-12T13:56:42.254Z,12.80
2019-01-12T13:59:11.917Z,128.30
2019-01-12T14:01:41.735Z,21.53
2019-01-12T14:04:11.541Z,11.17
2019-01-12T14:06:41.402Z,11.90
2019-01-12T14:09:11.251Z,13.60
2019-01-12T14:11:41.040Z,9.97
2019-01-12T14:14:10.814Z,14.13
2019-01-12T14:16:40.653Z,13.73
2019-01-12T14:19:10.480Z,12.60
2019-01-12T14:21:40.293Z,14.60
2019-01-12T14:24:10.119Z,12.77
2019-01-12T14:26:39.962Z,9.50
2019-01-12T14:29:09.779Z,11.50
2019-01-12T14:31:39.558Z,15.50
2019-01-12T14:34:09.370Z,16.73
2019-01-12T14:36:39.170Z,18.57
2019-01-12T14:39:10.440Z,16.63
2019-01-12T14:41:40.214Z,15.17
2019-01-12T14:44:10.006Z,13.83
2019-01-12T14:46:40.635Z,11.97
2019-01-12T14:49:10.557Z,13.27
2019-01-12T14:51:40.355Z,12.60
2019-01-12T14:54:10.068Z,27.00
2019-01-12T14:56:40.007Z,16.67
2019-01-12T14:59:10.029Z,16.67
2019-01-12T15:01:39.881Z,17.17
2019-01-12T15:04:09.700Z,15.60
2019-01-12T15:06:39.579Z,14.50
2019-01-12T15:09:09.428Z,12.00
2019-01-12T15:11:40.258Z,16.10
2019-01-12T15:14:11.021Z,18.77
2019-01-12T15:16:40.895Z,17.77
2019-01-12T15:19:10.695Z,17.87
2019-01-12T15:21:40.506Z,17.00
2019-01-12T15:24:10.355Z,15.93
2019-01-12T15:26:40.168Z,31.57
2019-01-12T15:29:10.993Z,37.43
2019-01-12T15:31:40.609Z,23.53
2019-01-12T15:34:10.267Z,24.70
2019-01-12T15:36:40.931Z,20.60
2019-01-12T15:39:11.182Z,21.63
2019-01-12T15:41:41.301Z,23.23
2019-01-12T15:44:11.691Z,17.50
2019-01-12T15:46:41.965Z,20.97
2019-01-12T15:49:11.819Z,15.67
2019-01-12T15:51:41.949Z,20.20
2019-01-12T15:54:11.810Z,18.83
2019-01-12T15:56:41.547Z,15.97
2019-01-12T15:59:11.383Z,16.23
2019-01-12T16:01:41.239Z,21.83
2019-01-12T16:04:11.964Z,41.37
2019-01-12T16:06:41.728Z,22.33
2019-01-12T16:09:11.616Z,20.87
2019-01-12T16:11:41.471Z,20.37
2019-01-12T16:14:11.741Z,20.23
2019-01-12T16:16:41.506Z,19.20
2019-01-12T16:19:11.357Z,23.73
2019-01-12T16:21:41.137Z,25.30
2019-01-12T16:24:11.096Z,29.80
2019-01-12T16:26:40.896Z,21.33
2019-01-12T16:29:10.824Z,21.57
2019-01-12T16:31:40.622Z,25.10
2019-01-12T16:34:10.423Z,25.63
2019-01-12T16:36:40.351Z,23.77
2019-01-12T16:39:10.182Z,23.23
2019-01-12T16:41:39.973Z,24.47
2019-01-12T16:44:09.795Z,25.80
2019-01-12T16:46:39.542Z,22.33
2019-01-12T16:49:09.398Z,21.97
2019-01-12T16:51:39.197Z,20.57
2019-01-12T16:54:09.041Z,22.33
2019-01-12T16:56:38.925Z,36.80
2019-01-12T16:59:08.756Z,27.30
2019-01-12T17:01:38.556Z,22.57
2019-01-12T17:04:08.403Z,21.80
2019-01-12T17:06:38.171Z,21.57
2019-01-12T17:09:08.937Z,22.70
2019-01-12T17:11:38.772Z,31.80
2019-01-12T17:14:08.592Z,24.53
2019-01-12T17:16:38.754Z,27.20
2019-01-12T17:19:08.586Z,18.40
2019-01-12T17:21:38.335Z,20.53
2019-01-12T17:24:08.104Z,21.70
2019-01-12T17:26:37.952Z,25.70
2019-01-12T17:29:07.800Z,33.47
2019-01-12T17:31:37.607Z,21.70
2019-01-12T17:34:07.552Z,27.37
2019-01-12T17:36:37.235Z,33.93
2019-01-12T17:39:09.349Z,25.83
2019-01-12T17:41:39.153Z,27.43
2019-01-12T17:44:09.156Z,25.77
2019-01-12T17:46:39.137Z,23.50
2019-01-12T17:49:08.939Z,27.50
2019-01-12T17:51:38.797Z,33.57
2019-01-12T17:54:08.757Z,26.27
2019-01-12T17:56:38.585Z,28.70
2019-01-12T17:59:08.213Z,26.30
2019-01-12T18:01:38.035Z,28.00
2019-01-12T18:04:10.337Z,28.83
2019-01-12T18:06:40.162Z,30.53
2019-01-12T18:09:10.293Z,28.30
2019-01-12T18:11:40.167Z,30.70
2019-01-12T18:14:09.997Z,29.03
2019-01-12T18:16:39.833Z,257.13
2019-01-12T18:19:09.639Z,216.70
2019-01-12T18:21:39.524Z,218.97
2019-01-12T18:24:09.374Z,140.90
2019-01-12T18:26:39.179Z,199.30
2019-01-12T18:29:09.034Z,92.37
2019-01-12T18:31:38.841Z,111.80
2019-01-12T18:34:08.659Z,96.43
2019-01-12T18:36:38.511Z,107.60
2019-01-12T18:39:08.309Z,103.93
2019-01-12T18:41:38.136Z,57.97
2019-01-12T18:44:07.971Z,61.93
2019-01-12T18:46:39.353Z,53.77
2019-01-12T18:49:09.499Z,50.50
2019-01-12T18:51:39.327Z,49.70
2019-01-12T18:54:09.155Z,48.50
2019-01-12T18:56:39.065Z,41.70
2019-01-12T18:59:09.110Z,48.77
2019-01-12T19:01:38.892Z,46.83
2019-01-12T19:04:08.677Z,47.07
2019-01-12T19:06:38.553Z,44.47
2019-01-12T19:09:10.983Z,59.60
2019-01-12T19:11:40.811Z,54.10
2019-01-12T19:14:10.656Z,41.90
2019-01-12T19:16:40.479Z,42.93
2019-01-12T19:19:10.332Z,53.10
2019-01-12T19:21:40.233Z,45.87
2019-01-12T19:24:11.628Z,45.23
2019-01-12T19:26:41.503Z,42.33
2019-01-12T19:29:11.344Z,39.07
2019-01-12T19:31:41.088Z,44.33
2019-01-12T19:34:10.933Z,40.50
2019-01-12T19:36:40.817Z,40.93
2019-01-12T19:39:11.665Z,42.27
2019-01-12T19:41:41.623Z,45.43
2019-01-12T19:44:11.430Z,48.13
2019-01-12T19:46:41.299Z,43.90
2019-01-12T19:49:11.278Z,46.17
2019-01-12T19:51:41.083Z,46.63
2019-01-12T19:54:12.441Z,44.43
2019-01-12T19:56:42.296Z,50.50
2019-01-12T19:59:13.783Z,51.63
2019-01-12T20:01:43.612Z,52.10
2019-01-12T20:04:13.428Z,58.90
2019-01-12T20:06:43.405Z,51.87
2019-01-12T20:09:13.283Z,43.00
2019-01-12T20:11:43.187Z,218.47
2019-01-12T20:14:13.078Z,61.00
2019-01-12T20:16:42.918Z,46.40
2019-01-12T20:19:12.741Z,49.00
2019-01-12T20:21:42.505Z,47.73
2019-01-12T20:24:12.384Z,45.67
2019-01-12T20:26:42.217Z,43.63
2019-01-12T20:29:12.449Z,50.90
2019-01-12T20:31:50.975Z,41.43
2019-01-12T20:34:26.361Z,43.03
2019-01-12T20:37:09.109Z,45.73
2019-01-12T20:39:41.968Z,45.10
2019-01-12T20:42:26.642Z,38.00
2019-01-12T20:45:25.120Z,41.37
2019-01-12T20:48:21.894Z,64.70
2019-01-12T20:50:54.816Z,40.17
2019-01-12T20:53:45.574Z,38.20
2019-01-12T20:56:28.870Z,39.73
2019-01-12T20:59:14.425Z,37.47
2019-01-12T21:01:55.638Z,34.10
2019-01-12T21:04:48.630Z,37.43
2019-01-12T21:07:33.773Z,34.57
2019-01-12T21:10:29.283Z,34.87
2019-01-12T21:13:29.260Z,33.77
2019-01-12T21:16:04.867Z,29.63
2019-01-12T21:18:34.739Z,28.10
2019-01-12T21:21:04.596Z,29.47
2019-01-12T21:23:34.413Z,31.60
2019-01-12T21:26:04.267Z,34.23
2019-01-12T21:28:34.510Z,28.67
2019-01-12T21:31:04.446Z,36.90
2019-01-12T21:33:34.267Z,31.57
2019-01-12T21:36:04.077Z,32.03
2019-01-12T21:38:33.913Z,31.67
2019-01-12T21:41:03.722Z,27.77
2019-01-12T21:43:33.561Z,29.60
2019-01-12T21:46:04.622Z,29.53
2019-01-12T21:48:34.443Z,30.63
2019-01-12T21:51:04.226Z,28.23
2019-01-12T21:53:34.079Z,28.53
2019-01-12T21:56:03.864Z,37.07
2019-01-12T21:58:33.744Z,29.57
2019-01-12T22:01:03.498Z,33.57
2019-01-12T22:03:33.285Z,42.00
2019-01-12T22:06:03.082Z,37.90
2019-01-12T22:08:32.948Z,32.10
2019-01-12T22:11:02.744Z,32.77
2019-01-12T22:13:32.514Z,29.80
2019-01-12T22:16:02.350Z,29.33
2019-01-12T22:18:32.137Z,36.00
2019-01-12T22:21:02.037Z,37.47
2019-01-12T22:23:32.037Z,39.17
2019-01-12T22:26:01.962Z,32.07
2019-01-12T22:28:31.794Z,32.43
2019-01-12T22:31:01.644Z,30.87
2019-01-12T22:33:31.479Z,33.10
2019-01-12T22:36:02.319Z,28.93
2019-01-12T22:38:32.140Z,32.33
2019-01-12T22:41:01.918Z,29.23
2019-01-12T22:43:31.827Z,28.13
2019-01-12T22:46:01.611Z,29.07
2019-01-12T22:48:31.287Z,34.27
2019-01-12T22:51:01.059Z,30.30
2019-01-12T22:53:30.814Z,33.60
2019-01-12T22:56:00.868Z,30.43
2019-01-12T22:58:30.615Z,31.37
2019-01-12T23:01:03.863Z,34.03
2019-01-12T23:03:33.646Z,32.43
2019-01-12T23:06:03.427Z,36.33
2019-01-12T23:08:33.281Z,36.20
2019-01-12T23:11:03.017Z,34.57
2019-01-12T23:13:32.803Z,33.93
2019-01-12T23:16:02.625Z,32.37
2019-01-12T23:18:33.867Z,35.47
2019-01-12T23:21:03.590Z,36.83
2019-01-12T23:23:34.017Z,38.97
2019-01-12T23:26:03.800Z,44.63
2019-01-12T23:28:33.595Z,43.37
2019-01-12T23:31:03.406Z,40.43
2019-01-12T23:33:33.150Z,39.63
2019-01-12T23:36:02.978Z,39.50
2019-01-12T23:38:32.760Z,42.50
2019-01-12T23:41:02.456Z,39.33
2019-01-12T23:43:32.317Z,38.10
2019-01-12T23:46:02.091Z,38.93
2019-01-12T23:48:31.709Z,36.70
2019-01-12T23:51:01.595Z,38.23
2019-01-12T23:53:31.774Z,38.23
2019-01-12T23:56:01.610Z,36.77
2019-01-12T23:58:31.311Z,40.20
